Time;durP1;ratioP1;P1;durP2;ratioP2;P2;SDS_P1;SDS_P2;PMS_P1;PMS_P2;Temp;Humidity;BMP_temperature;BMP_pressure;BME280_temperature;BME280_humidity;BME280_pressure;Samples;Min_cycle;Max_cycle;Signal;HPM_P1;HPM_P2
2023/01/17 00:00:43;;;;;;;4.30;2.35;;;26.10;52.30;;;;;;4955155;28;20543;-50
2023/01/17 00:03:13;;;;;;;3.63;2.25;;;26.10;52.30;;;;;;4955393;28;20206;-51
2023/01/17 00:11:19;;;;;;;5.15;2.30;;;26.10;52.20;;;;;;4937965;28;20219;-51
2023/01/17 00:13:50;;;;;;;3.38;2.08;;;26.10;52.20;;;;;;4954839;28;20199;-49
2023/01/17 00:16:23;;;;;;;3.70;2.25;;;26.10;52.30;;;;;;4954992;28;20233;-51
2023/01/17 01:34:46;;;;;;;2.25;1.70;;;26.50;51.90;;;;;;4953485;29;20277;-54
2023/01/17 01:37:19;;;;;;;5.25;1.92;;;26.50;51.90;;;;;;4952726;28;20222;-53
2023/01/17 01:39:50;;;;;;;2.78;1.70;;;26.60;51.90;;;;;;4953001;28;20214;-51
2023/01/17 01:42:20;;;;;;;3.75;2.00;;;26.50;51.80;;;;;;4954135;28;20195;-55
2023/01/17 01:44:52;;;;;;;3.58;1.80;;;26.60;51.90;;;;;;4953580;28;20206;-53
2023/01/17 01:47:28;;;;;;;3.10;1.70;;;26.60;51.90;;;;;;4953607;28;20218;-55
2023/01/17 01:50:00;;;;;;;2.40;1.70;;;26.60;51.90;;;;;;4954062;28;20202;-54
2023/01/17 01:52:35;;;;;;;2.83;1.77;;;26.60;51.90;;;;;;4952975;28;20191;-55
2023/01/17 01:55:09;;;;;;;2.53;1.77;;;26.60;51.90;;;;;;4953833;28;20198;-54
2023/01/17 01:57:42;;;;;;;2.78;1.77;;;26.60;51.90;;;;;;4953058;28;20704;-54
2023/01/17 02:00:18;;;;;;;4.18;1.90;;;26.70;51.80;;;;;;4953740;28;20206;-52
2023/01/17 02:02:51;;;;;;;2.58;1.80;;;26.70;51.80;;;;;;4952954;28;20198;-53
2023/01/17 02:05:24;;;;;;;4.07;1.90;;;26.70;51.80;;;;;;4953536;28;20210;-51
2023/01/17 02:08:00;;;;;;;3.25;1.80;;;26.70;51.70;;;;;;4952335;28;20234;-50
2023/01/17 02:10:33;;;;;;;3.35;1.85;;;26.80;51.80;;;;;;4953181;28;20206;-52
2023/01/17 02:13:05;;;;;;;2.85;1.65;;;26.80;51.70;;;;;;4952232;28;20195;-53
2023/01/17 02:15:42;;;;;;;2.42;1.63;;;26.80;51.70;;;;;;4952897;28;20209;-51
2023/01/17 02:18:23;;;;;;;3.38;2.03;;;26.80;51.70;;;;;;4951895;28;20203;-50
2023/01/17 02:21:29;;;;;;;2.97;1.70;;;26.90;51.70;;;;;;4952548;28;20203;-53
2023/01/17 02:24:33;;;;;;;2.28;1.83;;;26.90;51.70;;;;;;4952856;28;20205;-52
2023/01/17 02:27:11;;;;;;;3.75;1.90;;;26.90;51.70;;;;;;4943779;28;20226;-50
2023/01/17 02:30:21;;;;;;;3.65;1.90;;;26.90;51.60;;;;;;4952620;28;20573;-52
2023/01/17 02:33:21;;;;;;;2.80;1.70;;;26.90;51.60;;;;;;4952936;28;20234;-53
2023/01/17 02:36:03;;;;;;;3.00;1.75;;;27.00;51.60;;;;;;4948995;28;20218;-47
2023/01/17 02:38:41;;;;;;;2.60;1.67;;;26.90;51.50;;;;;;4953435;29;20206;-50
2023/01/17 02:41:18;;;;;;;2.83;1.98;;;26.90;51.50;;;;;;4953425;29;20202;-50
2023/01/17 02:43:52;;;;;;;1.90;1.60;;;27.00;51.50;;;;;;4953338;28;20582;-51
2023/01/17 02:46:23;;;;;;;3.05;1.98;;;27.00;51.40;;;;;;4953253;28;20313;-50
2023/01/17 02:48:59;;;;;;;2.35;1.80;;;27.00;51.40;;;;;;4953307;28;20231;-51
2023/01/17 02:51:47;;;;;;;3.25;1.70;;;27.00;51.40;;;;;;4949394;28;20658;-50
2023/01/17 02:54:44;;;;;;;2.10;1.60;;;27.10;51.40;;;;;;4952407;28;20841;-51
2023/01/17 02:57:33;;;;;;;3.03;1.90;;;27.10;51.40;;;;;;4949214;28;20227;-54
2023/01/17 03:00:09;;;;;;;2.83;1.83;;;27.10;51.40;;;;;;4960237;28;20593;-54
2023/01/17 03:02:47;;;;;;;3.13;1.92;;;27.10;51.30;;;;;;4971426;28;20198;-54
2023/01/17 03:05:23;;;;;;;2.97;1.90;;;27.10;51.30;;;;;;4963893;28;20546;-53
2023/01/17 03:07:54;;;;;;;2.33;1.40;;;27.10;51.30;;;;;;4949441;28;20227;-54
2023/01/17 03:10:25;;;;;;;2.40;1.55;;;27.20;51.40;;;;;;4941550;29;20739;-52
2023/01/17 03:13:00;;;;;;;2.35;1.83;;;27.20;51.30;;;;;;4952401;28;20207;-49
2023/01/17 03:15:31;;;;;;;1.90;1.50;;;27.20;51.30;;;;;;4952145;28;20205;-53
2023/01/17 03:18:05;;;;;;;3.75;2.22;;;27.20;51.30;;;;;;4951898;28;20753;-54
2023/01/17 03:20:37;;;;;;;2.75;1.90;;;27.20;51.20;;;;;;4952263;28;20206;-51
2023/01/17 03:23:08;;;;;;;3.00;1.80;;;27.30;51.20;;;;;;4954476;28;20199;-54
2023/01/17 03:25:39;;;;;;;1.88;1.50;;;27.20;51.10;;;;;;4952405;28;20210;-53
2023/01/17 03:28:09;;;;;;;1.92;1.70;;;27.30;51.80;;;;;;4951990;28;20778;-52
2023/01/17 03:30:40;;;;;;;2.58;1.52;;;27.30;51.10;;;;;;4954717;28;20210;-51
2023/01/17 03:33:11;;;;;;;2.13;1.60;;;27.30;51.00;;;;;;4955369;28;20214;-51
2023/01/17 03:35:43;;;;;;;2.42;1.67;;;27.40;51.10;;;;;;4955814;28;20207;-53
2023/01/17 03:38:14;;;;;;;1.65;1.55;;;27.40;51.10;;;;;;4955873;28;20199;-49
2023/01/17 03:40:45;;;;;;;3.63;1.83;;;27.40;51.00;;;;;;4954944;28;20214;-53
2023/01/17 03:43:15;;;;;;;3.60;1.60;;;27.40;51.00;;;;;;4955844;28;20209;-54
2023/01/17 03:45:46;;;;;;;1.98;1.35;;;27.40;51.00;;;;;;4955357;28;20195;-51
2023/01/17 03:48:17;;;;;;;4.35;2.00;;;27.40;50.90;;;;;;4955275;28;20246;-53
2023/01/17 03:50:52;;;;;;;5.07;1.92;;;27.40;50.60;;;;;;4955882;28;20206;-53
2023/01/17 03:53:23;;;;;;;5.88;2.20;;;27.40;50.40;;;;;;4956001;28;20205;-54
2023/01/17 03:55:53;;;;;;;7.93;3.10;;;27.30;50.20;;;;;;4955732;28;20226;-55
2023/01/17 03:58:24;;;;;;;9.98;2.95;;;27.30;50.10;;;;;;4955476;28;20678;-49
2023/01/17 04:00:55;;;;;;;6.25;2.40;;;27.30;50.00;;;;;;4955206;28;20577;-53
2023/01/17 04:03:26;;;;;;;4.25;2.50;;;27.30;50.00;;;;;;4955471;28;20195;-52
2023/01/17 04:05:59;;;;;;;6.72;2.25;;;27.30;49.90;;;;;;4959143;28;20274;-54
2023/01/17 04:08:30;;;;;;;3.75;1.90;;;27.30;49.80;;;;;;4955144;28;20256;-53
2023/01/17 04:11:01;;;;;;;5.47;2.20;;;27.30;49.70;;;;;;4954377;28;20234;-54
2023/01/17 04:13:32;;;;;;;6.78;2.42;;;27.30;49.70;;;;;;4955066;28;20218;-53
2023/01/17 04:16:03;;;;;;;8.02;2.75;;;27.20;49.40;;;;;;4955764;28;21009;-49
2023/01/17 04:18:33;;;;;;;3.42;1.75;;;27.20;49.50;;;;;;4954911;28;20226;-49
2023/01/17 04:21:06;;;;;;;4.72;2.03;;;27.20;49.70;;;;;;4954627;28;20199;-54
2023/01/17 04:23:37;;;;;;;4.95;1.90;;;27.20;49.90;;;;;;4954422;28;20217;-53
2023/01/17 04:26:07;;;;;;;2.47;1.75;;;27.20;50.00;;;;;;4954455;28;20574;-51
2023/01/17 04:28:38;;;;;;;3.25;1.85;;;27.30;50.10;;;;;;4954182;28;20873;-52
2023/01/17 04:31:09;;;;;;;4.90;2.20;;;27.20;50.00;;;;;;4955134;28;20217;-53
2023/01/17 04:33:40;;;;;;;5.90;1.80;;;27.30;50.00;;;;;;4954669;28;20663;-55
2023/01/17 04:36:12;;;;;;;4.97;2.10;;;27.20;49.90;;;;;;4954789;28;20559;-50
2023/01/17 04:38:43;;;;;;;3.15;1.80;;;27.30;49.80;;;;;;4954475;28;20202;-53
2023/01/17 04:41:14;;;;;;;3.95;1.73;;;27.30;49.80;;;;;;4953727;28;20207;-52
2023/01/17 04:43:44;;;;;;;3.90;1.77;;;27.30;49.70;;;;;;4954602;28;20207;-52
2023/01/17 04:46:15;;;;;;;3.08;1.67;;;27.30;49.80;;;;;;4954250;28;20215;-54
2023/01/17 04:48:49;;;;;;;4.10;2.13;;;27.30;49.80;;;;;;4955190;28;20234;-52
2023/01/17 04:51:21;;;;;;;4.03;1.58;;;27.40;49.90;;;;;;4954745;28;20570;-50
2023/01/17 04:53:52;;;;;;;3.10;1.58;;;27.40;49.90;;;;;;4954707;28;20206;-47
2023/01/17 04:56:23;;;;;;;2.70;1.60;;;27.40;50.00;;;;;;4954085;28;20223;-53
2023/01/17 04:58:53;;;;;;;3.60;1.75;;;27.40;50.00;;;;;;4954508;28;20198;-49
2023/01/17 05:01:24;;;;;;;4.63;1.63;;;27.40;50.00;;;;;;4953426;28;20222;-50
2023/01/17 05:03:55;;;;;;;2.45;1.63;;;27.40;49.90;;;;;;4954543;28;20291;-47
2023/01/17 05:06:27;;;;;;;3.95;1.70;;;27.40;49.90;;;;;;4956228;28;20214;-49
2023/01/17 05:08:58;;;;;;;3.55;1.52;;;27.40;49.90;;;;;;4954193;28;20230;-52
2023/01/17 05:11:29;;;;;;;4.25;1.50;;;27.40;49.70;;;;;;4954260;28;20199;-52
2023/01/17 05:13:59;;;;;;;2.55;1.55;;;27.40;49.70;;;;;;4954234;28;20608;-55
2023/01/17 05:16:30;;;;;;;3.58;1.70;;;27.50;49.70;;;;;;4953666;28;20221;-49
2023/01/17 05:19:01;;;;;;;2.97;1.58;;;27.50;49.70;;;;;;4953306;28;20214;-52
2023/01/17 05:21:33;;;;;;;4.30;2.05;;;27.50;49.60;;;;;;4954153;28;20205;-53
2023/01/17 05:24:04;;;;;;;1.95;1.45;;;27.50;49.60;;;;;;4953553;28;20674;-51
2023/01/17 05:26:34;;;;;;;3.55;1.63;;;27.50;49.60;;;;;;4953883;28;20242;-55
2023/01/17 05:29:05;;;;;;;3.83;1.88;;;27.50;49.70;;;;;;4954250;28;20246;-52
2023/01/17 05:31:36;;;;;;;2.65;1.63;;;27.50;49.70;;;;;;4955390;28;20206;-52
2023/01/17 05:34:07;;;;;;;2.83;1.70;;;27.50;49.70;;;;;;4953892;28;20199;-53
2023/01/17 05:36:39;;;;;;;2.42;1.67;;;27.50;49.80;;;;;;4953639;28;20280;-53
2023/01/17 05:39:10;;;;;;;3.58;1.50;;;27.50;49.70;;;;;;4953488;28;20207;-52
2023/01/17 05:41:41;;;;;;;4.05;1.65;;;27.50;49.70;;;;;;4953499;28;20211;-51
2023/01/17 05:44:13;;;;;;;3.63;1.80;;;27.50;49.80;;;;;;4953598;28;20841;-52
2023/01/17 05:46:45;;;;;;;3.67;1.50;;;27.50;49.70;;;;;;4953329;28;20217;-52
2023/01/17 05:49:15;;;;;;;3.08;1.83;;;27.50;49.70;;;;;;4954044;28;20222;-51
2023/01/17 05:51:48;;;;;;;3.08;1.60;;;27.50;49.70;;;;;;4951475;28;20199;-50
2023/01/17 05:54:19;;;;;;;3.33;1.70;;;27.50;49.60;;;;;;4952054;28;20191;-53
2023/01/17 05:56:49;;;;;;;2.28;1.70;;;27.60;49.70;;;;;;4953357;28;20285;-52
2023/01/17 05:59:20;;;;;;;3.83;1.55;;;27.60;49.60;;;;;;4952591;28;20203;-52
2023/01/17 06:01:51;;;;;;;2.95;1.65;;;27.60;49.60;;;;;;4953575;28;20195;-52
2023/01/17 06:04:21;;;;;;;2.85;1.63;;;27.60;49.60;;;;;;4953395;28;20655;-51
2023/01/17 06:06:54;;;;;;;3.03;1.60;;;27.60;49.50;;;;;;4952945;28;20241;-53
2023/01/17 06:09:25;;;;;;;2.88;1.75;;;27.60;49.50;;;;;;4952845;28;20240;-51
2023/01/17 06:11:55;;;;;;;3.70;1.90;;;27.60;49.50;;;;;;4952827;28;20206;-49
2023/01/17 06:14:26;;;;;;;4.00;1.95;;;27.60;49.50;;;;;;4953398;28;20562;-51
2023/01/17 06:16:57;;;;;;;2.63;1.30;;;27.60;49.50;;;;;;4953324;28;20211;-53
2023/01/17 06:19:27;;;;;;;1.90;1.60;;;27.60;49.50;;;;;;4953638;28;20210;-52
2023/01/17 06:22:00;;;;;;;2.55;1.60;;;27.60;49.60;;;;;;4952681;28;20195;-48
2023/01/17 06:24:32;;;;;;;2.33;1.48;;;27.60;49.60;;;;;;4953259;28;20575;-47
2023/01/17 06:27:02;;;;;;;3.03;1.35;;;27.60;49.50;;;;;;4952369;28;20215;-54
2023/01/17 06:29:33;;;;;;;3.95;1.63;;;27.60;49.50;;;;;;4952534;28;20277;-52
2023/01/17 06:32:04;;;;;;;1.90;1.38;;;27.60;49.40;;;;;;4953855;28;20198;-50
2023/01/17 06:34:34;;;;;;;1.88;1.67;;;27.70;49.40;;;;;;4953444;28;20198;-46
2023/01/17 06:37:07;;;;;;;2.05;1.58;;;27.70;49.40;;;;;;4953178;28;20234;-48
2023/01/17 06:39:38;;;;;;;3.92;1.55;;;27.70;49.30;;;;;;4953511;28;20195;-47
2023/01/17 06:42:08;;;;;;;2.15;1.38;;;27.70;49.30;;;;;;4934332;29;20195;-51
2023/01/17 06:44:39;;;;;;;2.05;1.23;;;27.70;49.30;;;;;;4934193;29;20207;-49
2023/01/17 06:47:10;;;;;;;4.03;1.55;;;27.70;49.20;;;;;;4934043;29;20219;-52
2023/01/17 06:49:40;;;;;;;4.90;1.70;;;27.70;49.80;;;;;;4934557;29;20256;-49
2023/01/17 06:52:13;;;;;;;1.67;1.25;;;27.70;49.20;;;;;;4933731;29;20647;-48
2023/01/17 06:54:44;;;;;;;2.92;1.63;;;27.70;49.20;;;;;;4933510;29;20195;-48
2023/01/17 06:57:22;;;;;;;3.38;1.88;;;27.70;49.20;;;;;;4938108;29;20213;-52
2023/01/17 06:59:52;;;;;;;2.85;1.50;;;27.80;49.30;;;;;;4952831;28;20543;-52
2023/01/17 07:02:23;;;;;;;2.88;1.73;;;27.80;49.30;;;;;;4953631;28;20213;-49
2023/01/17 07:04:54;;;;;;;1.92;1.30;;;27.80;49.30;;;;;;4953008;28;20207;-53
2023/01/17 07:07:26;;;;;;;2.20;1.30;;;27.80;49.20;;;;;;4953042;28;20596;-52
2023/01/17 07:09:57;;;;;;;2.53;1.70;;;27.80;49.20;;;;;;4955293;28;20222;-51
2023/01/17 07:12:28;;;;;;;2.08;1.45;;;27.80;49.20;;;;;;4952879;28;20250;-53
2023/01/17 07:14:58;;;;;;;2.88;1.50;;;27.80;49.20;;;;;;4952824;28;20206;-51
2023/01/17 07:17:29;;;;;;;1.48;1.38;;;27.80;49.30;;;;;;4952533;28;20683;-48
2023/01/17 07:20:00;;;;;;;1.90;1.42;;;27.80;49.20;;;;;;4952609;28;20211;-51
2023/01/17 07:22:32;;;;;;;2.47;1.50;;;27.80;49.30;;;;;;4952702;28;20218;-47
2023/01/17 07:25:03;;;;;;;2.33;1.50;;;27.80;49.20;;;;;;4952770;28;20774;-47
2023/01/17 07:27:34;;;;;;;3.75;1.73;;;27.80;49.00;;;;;;4952829;28;20233;-48
2023/01/17 07:30:04;;;;;;;5.13;1.65;;;27.80;48.90;;;;;;4952695;28;20242;-52
2023/01/17 07:32:36;;;;;;;2.63;1.60;;;27.70;48.90;;;;;;4954996;28;20608;-49
2023/01/17 07:35:07;;;;;;;3.60;1.67;;;27.70;48.80;;;;;;4952810;28;20242;-52
2023/01/17 07:37:39;;;;;;;2.22;1.60;;;27.70;48.70;;;;;;4952405;28;20246;-47
2023/01/17 07:40:11;;;;;;;5.68;1.88;;;27.70;48.70;;;;;;4952888;28;20206;-53
2023/01/17 07:42:42;;;;;;;3.88;1.85;;;27.70;48.70;;;;;;4952829;28;20199;-50
2023/01/17 07:45:14;;;;;;;2.55;1.50;;;27.60;48.70;;;;;;4952754;28;20210;-51
2023/01/17 07:47:44;;;;;;;2.90;1.50;;;27.60;48.70;;;;;;4949845;28;20230;-52
2023/01/17 07:50:15;;;;;;;2.88;1.85;;;27.60;48.70;;;;;;4952317;28;20230;-47
2023/01/17 07:52:51;;;;;;;2.65;1.60;;;27.60;48.80;;;;;;4950839;28;20762;-50
2023/01/17 07:55:22;;;;;;;3.25;1.60;;;27.60;48.80;;;;;;4951942;28;20210;-48
2023/01/17 07:57:53;;;;;;;2.97;1.50;;;27.60;48.80;;;;;;4951601;28;20223;-50
2023/01/17 08:00:25;;;;;;;3.17;1.52;;;27.50;48.80;;;;;;4951799;28;20203;-47
2023/01/17 08:03:00;;;;;;;2.72;1.60;;;27.60;48.90;;;;;;4951346;28;20282;-47
2023/01/17 08:05:31;;;;;;;3.15;1.70;;;27.50;48.90;;;;;;4940559;28;20720;-51
2023/01/17 08:08:03;;;;;;;3.10;1.70;;;27.50;48.90;;;;;;4947836;29;20727;-49
2023/01/17 08:10:34;;;;;;;4.03;1.80;;;27.50;48.90;;;;;;4951985;28;20234;-52
2023/01/17 08:13:05;;;;;;;3.55;1.73;;;27.50;48.90;;;;;;4951158;28;20204;-50
2023/01/17 08:15:35;;;;;;;3.55;1.85;;;27.50;48.90;;;;;;4951496;28;20234;-50
2023/01/17 08:18:06;;;;;;;4.85;1.80;;;27.50;48.90;;;;;;4952863;28;20205;-48
2023/01/17 08:20:37;;;;;;;2.22;2.03;;;27.40;48.90;;;;;;4955372;28;20210;-48
2023/01/17 08:23:12;;;;;;;4.13;2.10;;;27.40;48.90;;;;;;4954795;28;20203;-48
2023/01/17 08:25:43;;;;;;;2.97;1.73;;;27.40;48.90;;;;;;4953488;28;20547;-48
2023/01/17 08:28:14;;;;;;;4.80;1.88;;;27.40;48.90;;;;;;4955116;28;20213;-51
2023/01/17 08:30:45;;;;;;;3.25;2.08;;;27.30;48.90;;;;;;4954515;28;20683;-48
2023/01/17 08:33:18;;;;;;;3.60;1.73;;;27.30;48.90;;;;;;4955425;28;20678;-47
2023/01/17 08:35:54;;;;;;;3.67;1.50;;;27.30;48.90;;;;;;4954062;28;20207;-49
2023/01/17 08:38:27;;;;;;;2.75;1.60;;;27.30;48.90;;;;;;4954204;28;20587;-47
2023/01/17 08:41:01;;;;;;;2.38;1.67;;;27.30;49.00;;;;;;4953713;28;20199;-51
2023/01/17 08:43:32;;;;;;;3.30;1.88;;;27.30;49.00;;;;;;4954840;28;20205;-47
2023/01/17 08:46:05;;;;;;;2.92;1.83;;;27.30;49.00;;;;;;4954546;28;20230;-49
2023/01/17 08:48:35;;;;;;;3.33;1.70;;;27.20;48.90;;;;;;4954615;29;20206;-51
2023/01/17 08:51:06;;;;;;;4.80;1.98;;;27.20;48.90;;;;;;4955190;28;20818;-55
2023/01/17 08:53:39;;;;;;;2.92;1.85;;;27.20;48.90;;;;;;4954714;28;20199;-54
2023/01/17 08:56:10;;;;;;;4.25;1.90;;;27.20;48.90;;;;;;4953933;28;20218;-54
2023/01/17 08:58:41;;;;;;;5.25;1.92;;;27.20;48.90;;;;;;4954810;28;20670;-49
2023/01/17 09:01:12;;;;;;;3.13;1.90;;;27.10;48.80;;;;;;4954522;29;20195;-52
2023/01/17 09:03:44;;;;;;;3.80;2.00;;;27.10;48.80;;;;;;4935339;29;20660;-53
2023/01/17 09:06:17;;;;;;;2.63;1.65;;;27.10;48.90;;;;;;4934987;29;20228;-54
2023/01/17 09:08:49;;;;;;;4.30;1.90;;;27.10;48.90;;;;;;4934909;29;20208;-49
2023/01/17 09:11:20;;;;;;;3.97;2.00;;;27.10;48.90;;;;;;4948113;29;20207;-52
2023/01/17 09:13:51;;;;;;;2.65;1.88;;;27.00;48.90;;;;;;4953911;28;20203;-54
2023/01/17 09:16:21;;;;;;;4.00;1.77;;;27.00;48.90;;;;;;4954145;28;20219;-53
2023/01/17 09:18:55;;;;;;;2.75;1.88;;;27.00;48.90;;;;;;4947764;28;20214;-51
2023/01/17 09:21:27;;;;;;;6.05;2.33;;;27.00;48.90;;;;;;4953243;28;20201;-53
2023/01/17 09:23:59;;;;;;;3.22;1.85;;;27.00;48.90;;;;;;4953154;28;20662;-51
2023/01/17 09:26:32;;;;;;;3.55;2.08;;;27.00;48.90;;;;;;4953472;28;20230;-52
2023/01/17 09:29:02;;;;;;;4.35;2.10;;;26.90;48.90;;;;;;4953670;28;20199;-53
2023/01/17 09:31:33;;;;;;;3.38;1.88;;;26.90;48.90;;;;;;4953633;28;20210;-50
2023/01/17 09:34:04;;;;;;;3.17;2.13;;;26.90;48.90;;;;;;4954203;28;20207;-51
2023/01/17 09:36:34;;;;;;;4.32;2.03;;;26.90;48.90;;;;;;4954852;28;20230;-53
2023/01/17 09:39:07;;;;;;;3.75;1.92;;;26.80;48.70;;;;;;4953312;28;20206;-51
2023/01/17 09:41:45;;;;;;;4.45;2.00;;;26.80;48.80;;;;;;4953335;28;20191;-49
2023/01/17 09:44:27;;;;;;;3.35;1.92;;;26.80;48.90;;;;;;4954280;28;20643;-50
2023/01/17 09:47:01;;;;;;;4.38;2.00;;;26.80;48.90;;;;;;4952726;28;20211;-50
2023/01/17 09:49:38;;;;;;;3.88;1.90;;;26.80;48.90;;;;;;4953729;28;20229;-51
2023/01/17 09:52:11;;;;;;;2.53;1.67;;;26.70;48.90;;;;;;4953365;28;20277;-53
2023/01/17 09:54:44;;;;;;;2.05;1.80;;;26.70;48.90;;;;;;4953445;28;20667;-53
2023/01/17 09:57:33;;;;;;;4.20;2.00;;;26.70;48.90;;;;;;4953107;28;20210;-53
2023/01/17 10:00:14;;;;;;;3.35;1.92;;;26.70;48.90;;;;;;4953503;28;20199;-53
2023/01/17 10:03:01;;;;;;;3.42;2.03;;;26.70;48.90;;;;;;4953208;28;20619;-53
2023/01/17 10:05:48;;;;;;;4.80;2.08;;;26.70;48.90;;;;;;4953371;28;20206;-53
2023/01/17 10:08:31;;;;;;;3.05;2.10;;;26.70;49.50;;;;;;4953291;28;20210;-53
2023/01/17 10:11:19;;;;;;;2.95;1.65;;;26.60;48.90;;;;;;4953911;28;20245;-49
2023/01/17 10:13:58;;;;;;;2.20;1.70;;;26.60;48.90;;;;;;4953929;28;20221;-54
2023/01/17 10:16:40;;;;;;;3.20;1.88;;;26.50;48.80;;;;;;4953904;28;20226;-54
2023/01/17 10:19:20;;;;;;;3.50;1.83;;;26.50;48.90;;;;;;4953814;28;20206;-49
2023/01/17 10:22:03;;;;;;;3.20;1.80;;;26.50;48.90;;;;;;4953746;28;20198;-55
2023/01/17 10:24:58;;;;;;;4.40;2.25;;;26.50;49.00;;;;;;4953714;28;20203;-54
2023/01/17 10:27:34;;;;;;;2.53;1.60;;;26.50;49.00;;;;;;4953029;28;20215;-52
2023/01/17 10:30:12;;;;;;;4.18;2.13;;;26.50;49.00;;;;;;4953022;28;20226;-53
2023/01/17 10:32:48;;;;;;;2.70;1.95;;;26.40;49.00;;;;;;4953649;28;20195;-52
2023/01/17 10:35:26;;;;;;;3.75;1.67;;;26.40;49.00;;;;;;4953630;28;20199;-54
2023/01/17 10:37:59;;;;;;;3.05;1.80;;;26.40;49.00;;;;;;4952938;28;20202;-52
2023/01/17 10:40:40;;;;;;;4.15;2.10;;;26.40;49.00;;;;;;4952344;28;20210;-56
2023/01/17 10:43:21;;;;;;;2.45;1.65;;;26.40;49.00;;;;;;4953334;28;20253;-54
2023/01/17 10:45:55;;;;;;;3.05;1.70;;;26.40;49.00;;;;;;4953278;28;20218;-52
2023/01/17 10:48:38;;;;;;;4.18;2.08;;;26.40;49.00;;;;;;4953000;28;20668;-53
2023/01/17 10:51:23;;;;;;;3.25;1.73;;;26.30;49.00;;;;;;4965333;23;20231;-48
2023/01/17 10:54:10;;;;;;;2.72;1.63;;;26.30;48.90;;;;;;4953314;28;20287;-48
2023/01/17 10:56:42;;;;;;;4.45;1.80;;;26.30;49.00;;;;;;4952644;28;20222;-46
2023/01/17 10:59:28;;;;;;;2.38;1.52;;;26.30;49.00;;;;;;4933698;29;20710;-46
2023/01/17 11:01:59;;;;;;;2.78;1.73;;;26.20;49.00;;;;;;4934046;29;20664;-50
2023/01/17 11:04:36;;;;;;;3.80;1.58;;;26.20;49.00;;;;;;4934003;29;20584;-48
2023/01/17 11:07:15;;;;;;;3.00;1.65;;;26.20;49.00;;;;;;4934067;29;20219;-48
2023/01/17 11:09:47;;;;;;;3.38;1.85;;;26.20;49.10;;;;;;4934209;29;20199;-47
2023/01/17 11:12:29;;;;;;;3.17;1.70;;;26.20;49.00;;;;;;4952990;28;20210;-49
2023/01/17 11:15:06;;;;;;;3.17;1.63;;;26.20;49.10;;;;;;4952400;29;20211;-47
2023/01/17 11:17:39;;;;;;;3.17;1.75;;;26.20;49.00;;;;;;4952931;28;20690;-47
2023/01/17 11:20:23;;;;;;;3.30;1.77;;;26.10;49.00;;;;;;4953102;29;20198;-48
2023/01/17 11:23:09;;;;;;;2.30;1.48;;;26.10;48.90;;;;;;4952822;29;20202;-49
2023/01/17 11:25:40;;;;;;;3.28;1.58;;;26.10;48.90;;;;;;4952813;28;20206;-47
2023/01/17 11:28:22;;;;;;;3.00;1.80;;;26.10;48.90;;;;;;4955881;28;20285;-46
2023/01/17 11:31:00;;;;;;;1.77;1.52;;;26.10;49.00;;;;;;4953013;28;20241;-49
2023/01/17 11:33:52;;;;;;;2.42;1.63;;;26.00;48.90;;;;;;4952649;29;21068;-47
2023/01/17 11:36:26;;;;;;;2.30;1.38;;;26.00;49.00;;;;;;4952683;28;20225;-48
2023/01/17 11:39:02;;;;;;;1.90;1.60;;;26.00;49.00;;;;;;4952955;28;20194;-49
2023/01/17 11:41:37;;;;;;;1.60;1.42;;;26.00;49.00;;;;;;4957164;28;20208;-49
2023/01/17 11:44:24;;;;;;;4.68;1.67;;;26.00;49.00;;;;;;4952755;29;20210;-49
2023/01/17 11:47:19;;;;;;;1.65;1.42;;;25.90;49.00;;;;;;4952726;28;20261;-52
2023/01/17 11:49:50;;;;;;;2.50;1.58;;;25.90;49.00;;;;;;4965764;23;20246;-45
2023/01/17 11:52:26;;;;;;;1.80;1.52;;;25.90;49.00;;;;;;4935083;29;20562;-47
2023/01/17 11:54:57;;;;;;;2.40;1.33;;;25.90;49.00;;;;;;4937053;29;20560;-46
2023/01/17 11:57:29;;;;;;;2.22;1.40;;;25.90;49.00;;;;;;4937403;29;20219;-48
2023/01/17 12:00:18;;;;;;;3.00;1.70;;;25.90;49.00;;;;;;4937331;29;20207;-47
2023/01/17 12:03:12;;;;;;;3.13;1.33;;;25.80;48.90;;;;;;4937124;29;20564;-51
2023/01/17 12:05:52;;;;;;;2.67;1.50;;;25.80;48.90;;;;;;4937299;29;20203;-47
2023/01/17 12:08:33;;;;;;;1.77;1.20;;;25.80;48.90;;;;;;4936679;29;20214;-46
2023/01/17 12:11:11;;;;;;;3.22;1.63;;;25.80;48.90;;;;;;4936624;29;20227;-48
2023/01/17 12:14:02;;;;;;;1.98;1.52;;;25.80;48.90;;;;;;4936868;29;20195;-47
2023/01/17 12:16:46;;;;;;;3.70;1.73;;;25.70;48.90;;;;;;4936516;29;20570;-49
2023/01/17 12:19:44;;;;;;;2.17;1.58;;;25.70;48.90;;;;;;4936355;29;20204;-48
2023/01/17 12:22:27;;;;;;;3.10;1.58;;;25.70;49.00;;;;;;4936138;29;20662;-49
2023/01/17 12:25:14;;;;;;;1.90;1.42;;;25.70;49.00;;;;;;4936272;29;20207;-47
2023/01/17 12:27:55;;;;;;;2.60;1.30;;;25.70;49.00;;;;;;4936609;29;20223;-47
2023/01/17 12:30:37;;;;;;;2.38;1.38;;;25.60;49.00;;;;;;4936793;29;20231;-44
2023/01/17 12:33:21;;;;;;;1.88;1.35;;;25.70;49.10;;;;;;4936823;29;20199;-45
2023/01/17 12:35:57;;;;;;;2.20;1.60;;;25.60;49.00;;;;;;4936507;29;20234;-48
2023/01/17 12:38:34;;;;;;;2.00;1.40;;;25.60;49.00;;;;;;4936306;29;20195;-46
2023/01/17 12:41:12;;;;;;;2.90;1.60;;;25.60;49.00;;;;;;4936433;29;20203;-48
2023/01/17 12:43:44;;;;;;;1.50;1.25;;;25.60;49.00;;;;;;4936566;29;20199;-47
2023/01/17 12:46:19;;;;;;;2.08;1.38;;;25.60;49.00;;;;;;4936212;29;20231;-45
2023/01/17 12:48:53;;;;;;;2.05;1.38;;;25.50;48.90;;;;;;4935392;29;20198;-44
2023/01/17 12:51:30;;;;;;;2.25;1.30;;;25.50;49.00;;;;;;4936403;29;20265;-46
2023/01/17 12:54:07;;;;;;;2.03;1.33;;;25.50;49.00;;;;;;4936195;29;20563;-49
2023/01/17 12:56:43;;;;;;;1.52;1.30;;;25.50;49.00;;;;;;4936095;29;20223;-50
2023/01/17 12:59:19;;;;;;;1.15;1.05;;;25.50;49.00;;;;;;4936076;29;20195;-51
2023/01/17 13:01:57;;;;;;;2.38;1.58;;;25.50;49.10;;;;;;4936225;29;20207;-48
2023/01/17 13:04:31;;;;;;;1.75;1.35;;;25.50;49.00;;;;;;4935467;29;20196;-49
2023/01/17 13:07:14;;;;;;;2.15;1.40;;;25.50;49.10;;;;;;4935769;29;20597;-50
2023/01/17 13:09:47;;;;;;;1.40;1.30;;;25.50;49.10;;;;;;4935191;29;20660;-52
2023/01/17 13:12:21;;;;;;;1.80;1.30;;;25.50;49.00;;;;;;4935497;29;20227;-53
2023/01/17 13:14:52;;;;;;;2.08;1.20;;;25.40;49.00;;;;;;4935514;29;20199;-46
2023/01/17 13:17:34;;;;;;;2.03;1.30;;;25.40;49.00;;;;;;4935822;29;20220;-48
2023/01/17 13:20:12;;;;;;;1.48;1.35;;;25.40;49.00;;;;;;4935851;29;20203;-48
2023/01/17 13:22:45;;;;;;;1.45;1.35;;;25.40;49.00;;;;;;4935823;29;20254;-50
2023/01/17 13:25:32;;;;;;;1.67;1.25;;;25.30;49.00;;;;;;4935842;29;20411;-49
2023/01/17 13:28:15;;;;;;;2.42;1.33;;;25.30;49.00;;;;;;4935008;29;20195;-51
2023/01/17 13:31:12;;;;;;;2.13;1.20;;;25.30;49.00;;;;;;4935227;29;20683;-50
2023/01/17 13:33:52;;;;;;;2.60;1.23;;;25.30;49.00;;;;;;4931421;29;20204;-51
2023/01/17 13:36:42;;;;;;;1.70;1.30;;;25.30;49.00;;;;;;4937044;29;20211;-50
2023/01/17 13:39:50;;;;;;;1.80;1.15;;;25.20;49.00;;;;;;4935415;29;20200;-48
2023/01/17 13:42:27;;;;;;;1.88;1.33;;;25.30;49.10;;;;;;4913594;29;20208;-48
2023/01/17 13:44:58;;;;;;;1.98;1.30;;;25.30;49.00;;;;;;4931127;29;20206;-46
2023/01/17 13:47:44;;;;;;;2.67;1.50;;;25.20;49.00;;;;;;4935202;29;20582;-47
2023/01/17 13:50:48;;;;;;;2.00;1.30;;;25.20;49.10;;;;;;4950913;23;21412;-48
2023/01/17 13:53:59;;;;;;;1.23;1.00;;;25.20;49.10;;;;;;4932424;29;20200;-49
2023/01/17 13:56:39;;;;;;;1.42;1.20;;;25.20;49.10;;;;;;4932568;29;20219;-49
2023/01/17 13:59:31;;;;;;;1.95;1.25;;;25.20;49.10;;;;;;4951098;28;20203;-48
2023/01/17 14:02:02;;;;;;;1.77;1.20;;;25.10;49.00;;;;;;4954323;28;20230;-52
2023/01/17 14:05:10;;;;;;;1.55;1.23;;;25.10;49.00;;;;;;4954382;28;20572;-50
2023/01/17 14:07:48;;;;;;;1.50;1.00;;;25.10;49.10;;;;;;4938598;28;20229;-51
2023/01/17 14:10:34;;;;;;;2.53;1.52;;;25.10;49.10;;;;;;4953546;28;20202;-51
2023/01/17 14:13:26;;;;;;;1.40;1.30;;;25.10;49.10;;;;;;4953821;29;20202;-50
2023/01/17 14:16:01;;;;;;;1.98;1.35;;;25.10;49.10;;;;;;4953084;29;20230;-51
2023/01/17 14:18:40;;;;;;;1.92;1.10;;;25.10;49.10;;;;;;4954078;28;20673;-48
2023/01/17 14:21:21;;;;;;;1.85;1.20;;;25.10;49.20;;;;;;4953839;29;20203;-49
2023/01/17 14:24:02;;;;;;;1.52;1.30;;;25.00;49.10;;;;;;4953368;29;20202;-48
2023/01/17 14:26:52;;;;;;;1.13;0.90;;;25.00;49.10;;;;;;4953576;28;20329;-52
2023/01/17 14:29:58;;;;;;;1.33;1.00;;;25.00;49.10;;;;;;4953910;29;20206;-48
2023/01/17 14:32:33;;;;;;;2.05;1.23;;;25.00;49.10;;;;;;4953933;29;20234;-51
2023/01/17 14:35:04;;;;;;;1.77;1.08;;;25.00;49.10;;;;;;4953891;29;20599;-49
2023/01/17 14:37:47;;;;;;;1.10;0.93;;;24.90;49.10;;;;;;4953448;28;20218;-50
2023/01/17 14:40:20;;;;;;;1.50;1.30;;;24.90;49.10;;;;;;4952976;29;20198;-48
2023/01/17 14:42:55;;;;;;;1.73;1.20;;;24.90;49.20;;;;;;4953671;28;20572;-49
2023/01/17 14:45:31;;;;;;;1.55;1.20;;;24.90;49.20;;;;;;4953659;28;20566;-52
2023/01/17 14:48:05;;;;;;;2.00;1.30;;;24.90;49.20;;;;;;4953310;28;20217;-53
2023/01/17 14:50:39;;;;;;;1.60;1.30;;;24.90;49.20;;;;;;4953757;28;20273;-50
2023/01/17 14:53:18;;;;;;;1.50;1.30;;;24.90;49.20;;;;;;4952783;28;20203;-52